sensor_id;sensor_type;location;lat;lon;timestamp;P1;durP1;ratioP1;P2;durP2;ratioP2
50241;SDS011;36126;43.222;27.874;2022-07-29T00:01:50;11.20;;;6.00;;
50241;SDS011;36126;43.222;27.874;2022-07-29T00:04:17;16.10;;;6.22;;
50241;SDS011;36126;43.222;27.874;2022-07-29T00:06:44;11.18;;;6.03;;
50241;SDS011;36126;43.222;27.874;2022-07-29T00:09:09;15.23;;;6.78;;
50241;SDS011;36126;43.222;27.874;2022-07-29T00:11:35;11.93;;;5.97;;
50241;SDS011;36126;43.222;27.874;2022-07-29T00:14:01;12.57;;;6.63;;
50241;SDS011;36126;43.222;27.874;2022-07-29T00:16:26;14.73;;;6.75;;
50241;SDS011;36126;43.222;27.874;2022-07-29T00:18:52;18.08;;;7.30;;
50241;SDS011;36126;43.222;27.874;2022-07-29T00:21:17;14.60;;;6.45;;
50241;SDS011;36126;43.222;27.874;2022-07-29T00:23:43;16.30;;;7.07;;
50241;SDS011;36126;43.222;27.874;2022-07-29T00:26:08;20.77;;;7.07;;
50241;SDS011;36126;43.222;27.874;2022-07-29T00:28:34;17.27;;;6.20;;
50241;SDS011;36126;43.222;27.874;2022-07-29T00:31:00;18.17;;;6.50;;
50241;SDS011;36126;43.222;27.874;2022-07-29T00:33:25;19.55;;;7.57;;
50241;SDS011;36126;43.222;27.874;2022-07-29T00:35:51;12.27;;;6.47;;
50241;SDS011;36126;43.222;27.874;2022-07-29T00:38:17;11.45;;;6.30;;
50241;SDS011;36126;43.222;27.874;2022-07-29T00:40:45;10.23;;;7.15;;
50241;SDS011;36126;43.222;27.874;2022-07-29T00:43:11;12.55;;;7.60;;
50241;SDS011;36126;43.222;27.874;2022-07-29T00:45:38;14.65;;;6.65;;
50241;SDS011;36126;43.222;27.874;2022-07-29T00:48:05;19.33;;;7.35;;
50241;SDS011;36126;43.222;27.874;2022-07-29T00:50:31;14.88;;;7.07;;
50241;SDS011;36126;43.222;27.874;2022-07-29T00:52:57;12.85;;;6.13;;
50241;SDS011;36126;43.222;27.874;2022-07-29T00:55:23;13.85;;;6.28;;
50241;SDS011;36126;43.222;27.874;2022-07-29T00:57:51;15.65;;;6.45;;
50241;SDS011;36126;43.222;27.874;2022-07-29T01:00:22;9.50;;;6.00;;
50241;SDS011;36126;43.222;27.874;2022-07-29T01:02:50;13.27;;;6.03;;
50241;SDS011;36126;43.222;27.874;2022-07-29T01:05:19;12.43;;;6.50;;
50241;SDS011;36126;43.222;27.874;2022-07-29T01:07:48;11.70;;;6.80;;
50241;SDS011;36126;43.222;27.874;2022-07-29T01:10:15;11.60;;;6.30;;
50241;SDS011;36126;43.222;27.874;2022-07-29T01:12:43;11.18;;;6.20;;
50241;SDS011;36126;43.222;27.874;2022-07-29T01:15:11;13.30;;;6.45;;
50241;SDS011;36126;43.222;27.874;2022-07-29T01:34:30;14.57;;;7.85;;
50241;SDS011;36126;43.222;27.874;2022-07-29T01:39:40;18.52;;;9.68;;
50241;SDS011;36126;43.222;27.874;2022-07-29T01:42:15;27.88;;;10.90;;
50241;SDS011;36126;43.222;27.874;2022-07-29T01:50:17;21.73;;;10.48;;
50241;SDS011;36126;43.222;27.874;2022-07-29T01:52:58;22.10;;;9.88;;
50241;SDS011;36126;43.222;27.874;2022-07-29T01:55:28;26.88;;;10.60;;
50241;SDS011;36126;43.222;27.874;2022-07-29T01:58:04;23.77;;;9.80;;
50241;SDS011;36126;43.222;27.874;2022-07-29T02:00:31;17.25;;;9.20;;
50241;SDS011;36126;43.222;27.874;2022-07-29T02:03:04;17.17;;;8.93;;
50241;SDS011;36126;43.222;27.874;2022-07-29T02:05:32;18.50;;;9.38;;
50241;SDS011;36126;43.222;27.874;2022-07-29T02:08:01;17.85;;;8.77;;
50241;SDS011;36126;43.222;27.874;2022-07-29T02:10:29;25.58;;;9.00;;
50241;SDS011;36126;43.222;27.874;2022-07-29T02:13:00;25.00;;;10.45;;
50241;SDS011;36126;43.222;27.874;2022-07-29T02:15:29;26.67;;;9.73;;
50241;SDS011;36126;43.222;27.874;2022-07-29T02:18:07;20.00;;;9.88;;
50241;SDS011;36126;43.222;27.874;2022-07-29T02:20:36;20.38;;;10.35;;
50241;SDS011;36126;43.222;27.874;2022-07-29T02:23:05;24.20;;;10.82;;
50241;SDS011;36126;43.222;27.874;2022-07-29T02:25:32;22.73;;;10.25;;
50241;SDS011;36126;43.222;27.874;2022-07-29T02:27:57;22.17;;;8.88;;
50241;SDS011;36126;43.222;27.874;2022-07-29T02:30:25;20.88;;;10.32;;
50241;SDS011;36126;43.222;27.874;2022-07-29T02:32:52;20.42;;;11.85;;
50241;SDS011;36126;43.222;27.874;2022-07-29T02:35:19;26.98;;;13.20;;
50241;SDS011;36126;43.222;27.874;2022-07-29T02:37:46;25.27;;;13.50;;
50241;SDS011;36126;43.222;27.874;2022-07-29T02:40:34;24.88;;;13.43;;
50241;SDS011;36126;43.222;27.874;2022-07-29T02:43:03;26.77;;;13.13;;
50241;SDS011;36126;43.222;27.874;2022-07-29T02:45:32;38.55;;;14.85;;
50241;SDS011;36126;43.222;27.874;2022-07-29T02:47:59;30.95;;;13.52;;
50241;SDS011;36126;43.222;27.874;2022-07-29T02:50:32;26.17;;;14.07;;
50241;SDS011;36126;43.222;27.874;2022-07-29T02:53:05;38.42;;;17.52;;
50241;SDS011;36126;43.222;27.874;2022-07-29T02:55:41;39.80;;;17.42;;
50241;SDS011;36126;43.222;27.874;2022-07-29T02:58:29;32.10;;;17.20;;
50241;SDS011;36126;43.222;27.874;2022-07-29T03:01:03;37.53;;;18.90;;
50241;SDS011;36126;43.222;27.874;2022-07-29T03:03:36;38.17;;;16.75;;
50241;SDS011;36126;43.222;27.874;2022-07-29T03:06:03;35.00;;;18.30;;
50241;SDS011;36126;43.222;27.874;2022-07-29T03:08:30;34.88;;;17.08;;
50241;SDS011;36126;43.222;27.874;2022-07-29T03:10:57;45.90;;;17.95;;
50241;SDS011;36126;43.222;27.874;2022-07-29T03:13:24;40.90;;;19.40;;
50241;SDS011;36126;43.222;27.874;2022-07-29T03:15:50;34.67;;;17.52;;
50241;SDS011;36126;43.222;27.874;2022-07-29T03:18:17;51.03;;;18.33;;
50241;SDS011;36126;43.222;27.874;2022-07-29T03:20:43;37.47;;;18.52;;
50241;SDS011;36126;43.222;27.874;2022-07-29T03:23:09;42.70;;;19.00;;
50241;SDS011;36126;43.222;27.874;2022-07-29T03:25:34;38.95;;;18.67;;
50241;SDS011;36126;43.222;27.874;2022-07-29T03:28:00;33.63;;;17.75;;
50241;SDS011;36126;43.222;27.874;2022-07-29T03:30:25;38.15;;;19.00;;
50241;SDS011;36126;43.222;27.874;2022-07-29T03:32:52;40.45;;;18.15;;
50241;SDS011;36126;43.222;27.874;2022-07-29T03:35:18;40.53;;;18.85;;
50241;SDS011;36126;43.222;27.874;2022-07-29T03:37:45;47.83;;;18.02;;
50241;SDS011;36126;43.222;27.874;2022-07-29T03:40:11;38.78;;;17.80;;
50241;SDS011;36126;43.222;27.874;2022-07-29T03:42:43;34.55;;;17.58;;
50241;SDS011;36126;43.222;27.874;2022-07-29T03:45:10;40.53;;;18.15;;
50241;SDS011;36126;43.222;27.874;2022-07-29T03:47:40;36.30;;;17.20;;
50241;SDS011;36126;43.222;27.874;2022-07-29T03:50:11;49.37;;;17.73;;
50241;SDS011;36126;43.222;27.874;2022-07-29T03:52:38;32.95;;;17.17;;
50241;SDS011;36126;43.222;27.874;2022-07-29T03:55:05;34.03;;;16.98;;
50241;SDS011;36126;43.222;27.874;2022-07-29T03:57:31;36.25;;;16.35;;
50241;SDS011;36126;43.222;27.874;2022-07-29T03:59:58;33.42;;;15.73;;
50241;SDS011;36126;43.222;27.874;2022-07-29T04:02:26;37.72;;;15.93;;
50241;SDS011;36126;43.222;27.874;2022-07-29T04:04:52;41.40;;;16.50;;
50241;SDS011;36126;43.222;27.874;2022-07-29T04:07:18;36.53;;;15.07;;
50241;SDS011;36126;43.222;27.874;2022-07-29T04:09:43;38.53;;;15.15;;
50241;SDS011;36126;43.222;27.874;2022-07-29T04:12:09;33.13;;;15.50;;
50241;SDS011;36126;43.222;27.874;2022-07-29T04:14:35;34.38;;;16.20;;
50241;SDS011;36126;43.222;27.874;2022-07-29T04:17:01;39.30;;;16.30;;
50241;SDS011;36126;43.222;27.874;2022-07-29T04:19:27;41.58;;;15.32;;
50241;SDS011;36126;43.222;27.874;2022-07-29T04:21:53;34.28;;;14.60;;
50241;SDS011;36126;43.222;27.874;2022-07-29T04:24:18;31.38;;;13.43;;
50241;SDS011;36126;43.222;27.874;2022-07-29T04:26:47;37.67;;;13.80;;
50241;SDS011;36126;43.222;27.874;2022-07-29T04:29:13;32.22;;;15.13;;
50241;SDS011;36126;43.222;27.874;2022-07-29T04:31:39;27.77;;;13.57;;
50241;SDS011;36126;43.222;27.874;2022-07-29T04:34:05;32.20;;;13.45;;
50241;SDS011;36126;43.222;27.874;2022-07-29T04:36:31;36.03;;;13.30;;
50241;SDS011;36126;43.222;27.874;2022-07-29T04:38:57;38.00;;;12.88;;
50241;SDS011;36126;43.222;27.874;2022-07-29T04:41:23;33.78;;;13.05;;
50241;SDS011;36126;43.222;27.874;2022-07-29T04:43:48;34.42;;;10.95;;
50241;SDS011;36126;43.222;27.874;2022-07-29T04:46:14;16.40;;;8.77;;
50241;SDS011;36126;43.222;27.874;2022-07-29T04:48:39;32.65;;;9.02;;
50241;SDS011;36126;43.222;27.874;2022-07-29T04:51:05;19.38;;;8.32;;
50241;SDS011;36126;43.222;27.874;2022-07-29T04:53:31;21.40;;;8.48;;
50241;SDS011;36126;43.222;27.874;2022-07-29T04:55:56;25.08;;;8.73;;
50241;SDS011;36126;43.222;27.874;2022-07-29T04:58:22;23.27;;;8.13;;
50241;SDS011;36126;43.222;27.874;2022-07-29T05:00:48;20.17;;;8.48;;
50241;SDS011;36126;43.222;27.874;2022-07-29T05:03:15;17.50;;;6.85;;
50241;SDS011;36126;43.222;27.874;2022-07-29T05:05:40;14.95;;;6.88;;
50241;SDS011;36126;43.222;27.874;2022-07-29T05:08:07;23.20;;;10.25;;
50241;SDS011;36126;43.222;27.874;2022-07-29T05:10:33;14.77;;;7.47;;
50241;SDS011;36126;43.222;27.874;2022-07-29T05:13:03;16.55;;;7.65;;
50241;SDS011;36126;43.222;27.874;2022-07-29T05:15:32;4.97;;;3.10;;
50241;SDS011;36126;43.222;27.874;2022-07-29T05:17:58;4.65;;;2.90;;
50241;SDS011;36126;43.222;27.874;2022-07-29T05:20:23;12.20;;;3.55;;
50241;SDS011;36126;43.222;27.874;2022-07-29T05:22:53;15.75;;;6.50;;
50241;SDS011;36126;43.222;27.874;2022-07-29T05:25:19;13.50;;;5.35;;
50241;SDS011;36126;43.222;27.874;2022-07-29T05:27:45;19.30;;;6.60;;
50241;SDS011;36126;43.222;27.874;2022-07-29T05:30:10;19.17;;;9.05;;
50241;SDS011;36126;43.222;27.874;2022-07-29T05:32:36;23.25;;;7.30;;
50241;SDS011;36126;43.222;27.874;2022-07-29T05:35:02;21.08;;;6.55;;
50241;SDS011;36126;43.222;27.874;2022-07-29T05:37:27;24.85;;;6.70;;
50241;SDS011;36126;43.222;27.874;2022-07-29T05:39:53;20.23;;;6.13;;
50241;SDS011;36126;43.222;27.874;2022-07-29T05:42:18;18.88;;;6.20;;
50241;SDS011;36126;43.222;27.874;2022-07-29T05:44:44;21.25;;;5.72;;
50241;SDS011;36126;43.222;27.874;2022-07-29T05:47:09;16.15;;;5.68;;
50241;SDS011;36126;43.222;27.874;2022-07-29T05:49:35;14.10;;;4.97;;
50241;SDS011;36126;43.222;27.874;2022-07-29T05:52:00;18.33;;;5.65;;
50241;SDS011;36126;43.222;27.874;2022-07-29T05:54:26;17.95;;;7.40;;
50241;SDS011;36126;43.222;27.874;2022-07-29T05:56:52;16.13;;;7.93;;
50241;SDS011;36126;43.222;27.874;2022-07-29T05:59:17;12.43;;;5.68;;
50241;SDS011;36126;43.222;27.874;2022-07-29T06:01:43;14.40;;;5.60;;
50241;SDS011;36126;43.222;27.874;2022-07-29T06:04:08;17.10;;;4.65;;
50241;SDS011;36126;43.222;27.874;2022-07-29T06:06:34;10.77;;;4.00;;
50241;SDS011;36126;43.222;27.874;2022-07-29T06:09:00;19.60;;;8.32;;
50241;SDS011;36126;43.222;27.874;2022-07-29T06:11:26;16.98;;;4.50;;
50241;SDS011;36126;43.222;27.874;2022-07-29T06:13:52;12.88;;;5.10;;
50241;SDS011;36126;43.222;27.874;2022-07-29T06:16:18;9.75;;;4.32;;
50241;SDS011;36126;43.222;27.874;2022-07-29T06:18:43;11.70;;;4.68;;
50241;SDS011;36126;43.222;27.874;2022-07-29T06:21:09;13.07;;;4.82;;
50241;SDS011;36126;43.222;27.874;2022-07-29T06:23:36;14.05;;;6.70;;
50241;SDS011;36126;43.222;27.874;2022-07-29T06:26:02;11.20;;;4.95;;
50241;SDS011;36126;43.222;27.874;2022-07-29T06:28:28;7.90;;;3.45;;
50241;SDS011;36126;43.222;27.874;2022-07-29T06:30:53;14.38;;;3.67;;
50241;SDS011;36126;43.222;27.874;2022-07-29T06:33:19;19.85;;;5.13;;
50241;SDS011;36126;43.222;27.874;2022-07-29T06:35:45;16.45;;;4.70;;
50241;SDS011;36126;43.222;27.874;2022-07-29T06:38:12;12.93;;;4.43;;
50241;SDS011;36126;43.222;27.874;2022-07-29T06:40:45;17.10;;;7.30;;
50241;SDS011;36126;43.222;27.874;2022-07-29T06:43:36;7.28;;;3.40;;
50241;SDS011;36126;43.222;27.874;2022-07-29T06:46:05;7.82;;;4.35;;
50241;SDS011;36126;43.222;27.874;2022-07-29T06:48:32;12.77;;;3.80;;
50241;SDS011;36126;43.222;27.874;2022-07-29T06:50:59;11.90;;;4.97;;
50241;SDS011;36126;43.222;27.874;2022-07-29T06:53:25;8.07;;;3.78;;
50241;SDS011;36126;43.222;27.874;2022-07-29T06:55:51;9.73;;;4.20;;
50241;SDS011;36126;43.222;27.874;2022-07-29T06:58:16;7.57;;;3.55;;
50241;SDS011;36126;43.222;27.874;2022-07-29T07:00:45;15.00;;;4.70;;
50241;SDS011;36126;43.222;27.874;2022-07-29T07:03:14;13.45;;;3.95;;
50241;SDS011;36126;43.222;27.874;2022-07-29T07:05:40;11.20;;;4.13;;
50241;SDS011;36126;43.222;27.874;2022-07-29T07:08:06;6.78;;;4.05;;
50241;SDS011;36126;43.222;27.874;2022-07-29T07:10:33;8.98;;;3.53;;
50241;SDS011;36126;43.222;27.874;2022-07-29T07:12:59;10.05;;;5.43;;
50241;SDS011;36126;43.222;27.874;2022-07-29T07:15:25;8.77;;;3.95;;
50241;SDS011;36126;43.222;27.874;2022-07-29T07:17:51;7.60;;;4.45;;
50241;SDS011;36126;43.222;27.874;2022-07-29T07:20:16;9.27;;;3.80;;
50241;SDS011;36126;43.222;27.874;2022-07-29T07:22:42;9.07;;;3.80;;
50241;SDS011;36126;43.222;27.874;2022-07-29T07:25:08;11.77;;;5.15;;
50241;SDS011;36126;43.222;27.874;2022-07-29T07:27:34;14.35;;;6.38;;
50241;SDS011;36126;43.222;27.874;2022-07-29T07:30:01;8.25;;;4.43;;
50241;SDS011;36126;43.222;27.874;2022-07-29T07:32:27;21.15;;;4.88;;
50241;SDS011;36126;43.222;27.874;2022-07-29T07:34:53;13.48;;;4.38;;
50241;SDS011;36126;43.222;27.874;2022-07-29T07:37:19;14.80;;;4.15;;
50241;SDS011;36126;43.222;27.874;2022-07-29T07:39:45;12.55;;;4.10;;
50241;SDS011;36126;43.222;27.874;2022-07-29T07:42:11;12.00;;;4.68;;
50241;SDS011;36126;43.222;27.874;2022-07-29T07:44:38;11.90;;;4.10;;
50241;SDS011;36126;43.222;27.874;2022-07-29T07:47:04;7.90;;;4.53;;
50241;SDS011;36126;43.222;27.874;2022-07-29T07:49:30;31.63;;;12.52;;
50241;SDS011;36126;43.222;27.874;2022-07-29T07:51:55;9.88;;;3.17;;
50241;SDS011;36126;43.222;27.874;2022-07-29T07:54:21;8.73;;;3.42;;
50241;SDS011;36126;43.222;27.874;2022-07-29T07:56:47;9.00;;;3.70;;
50241;SDS011;36126;43.222;27.874;2022-07-29T07:59:14;8.57;;;3.30;;
50241;SDS011;36126;43.222;27.874;2022-07-29T08:01:40;9.60;;;3.55;;
50241;SDS011;36126;43.222;27.874;2022-07-29T08:04:06;11.50;;;3.50;;
50241;SDS011;36126;43.222;27.874;2022-07-29T08:06:32;6.03;;;2.78;;
50241;SDS011;36126;43.222;27.874;2022-07-29T08:09:00;5.35;;;3.30;;
50241;SDS011;36126;43.222;27.874;2022-07-29T08:11:25;13.45;;;3.38;;
50241;SDS011;36126;43.222;27.874;2022-07-29T08:13:51;6.28;;;2.65;;
50241;SDS011;36126;43.222;27.874;2022-07-29T08:16:17;3.58;;;2.60;;
50241;SDS011;36126;43.222;27.874;2022-07-29T08:18:44;3.42;;;2.10;;
50241;SDS011;36126;43.222;27.874;2022-07-29T08:21:10;5.28;;;2.80;;
50241;SDS011;36126;43.222;27.874;2022-07-29T08:23:36;6.53;;;2.45;;
50241;SDS011;36126;43.222;27.874;2022-07-29T08:26:11;5.50;;;3.45;;
50241;SDS011;36126;43.222;27.874;2022-07-29T08:28:38;3.95;;;2.72;;
50241;SDS011;36126;43.222;27.874;2022-07-29T08:31:11;7.07;;;2.75;;
50241;SDS011;36126;43.222;27.874;2022-07-29T08:33:38;9.93;;;3.17;;
50241;SDS011;36126;43.222;27.874;2022-07-29T08:36:04;5.03;;;3.85;;
50241;SDS011;36126;43.222;27.874;2022-07-29T08:38:31;5.63;;;2.47;;
50241;SDS011;36126;43.222;27.874;2022-07-29T08:40:56;7.80;;;3.28;;
50241;SDS011;36126;43.222;27.874;2022-07-29T08:43:23;6.88;;;2.92;;
50241;SDS011;36126;43.222;27.874;2022-07-29T08:45:50;5.15;;;2.88;;
50241;SDS011;36126;43.222;27.874;2022-07-29T08:48:20;23.45;;;12.35;;
50241;SDS011;36126;43.222;27.874;2022-07-29T08:50:53;12.27;;;5.68;;
50241;SDS011;36126;43.222;27.874;2022-07-29T08:53:21;9.82;;;3.03;;
50241;SDS011;36126;43.222;27.874;2022-07-29T08:55:49;7.55;;;4.30;;
50241;SDS011;36126;43.222;27.874;2022-07-29T08:58:16;4.10;;;2.70;;
50241;SDS011;36126;43.222;27.874;2022-07-29T09:00:43;10.13;;;2.58;;
50241;SDS011;36126;43.222;27.874;2022-07-29T09:03:12;4.75;;;3.20;;
50241;SDS011;36126;43.222;27.874;2022-07-29T09:05:41;9.38;;;2.78;;
50241;SDS011;36126;43.222;27.874;2022-07-29T09:08:08;5.38;;;2.28;;
50241;SDS011;36126;43.222;27.874;2022-07-29T09:10:37;7.05;;;2.40;;
50241;SDS011;36126;43.222;27.874;2022-07-29T09:13:02;5.30;;;2.67;;
50241;SDS011;36126;43.222;27.874;2022-07-29T09:15:28;7.32;;;3.40;;
50241;SDS011;36126;43.222;27.874;2022-07-29T09:17:54;4.38;;;2.22;;
50241;SDS011;36126;43.222;27.874;2022-07-29T09:20:21;4.55;;;2.50;;
50241;SDS011;36126;43.222;27.874;2022-07-29T09:22:48;5.13;;;3.05;;
50241;SDS011;36126;43.222;27.874;2022-07-29T09:28:05;5.90;;;2.72;;
50241;SDS011;36126;43.222;27.874;2022-07-29T09:30:49;5.50;;;2.92;;
50241;SDS011;36126;43.222;27.874;2022-07-29T09:33:21;7.25;;;3.08;;
50241;SDS011;36126;43.222;27.874;2022-07-29T09:36:00;3.78;;;2.50;;
50241;SDS011;36126;43.222;27.874;2022-07-29T09:38:32;3.05;;;2.20;;
50241;SDS011;36126;43.222;27.874;2022-07-29T09:41:00;4.35;;;2.45;;
50241;SDS011;36126;43.222;27.874;2022-07-29T09:43:27;5.35;;;2.72;;
50241;SDS011;36126;43.222;27.874;2022-07-29T09:45:53;5.72;;;2.58;;
50241;SDS011;36126;43.222;27.874;2022-07-29T09:48:23;6.07;;;2.97;;
50241;SDS011;36126;43.222;27.874;2022-07-29T09:50:50;6.88;;;2.83;;
50241;SDS011;36126;43.222;27.874;2022-07-29T09:56:02;8.75;;;2.80;;
50241;SDS011;36126;43.222;27.874;2022-07-29T09:58:28;8.57;;;2.88;;
50241;SDS011;36126;43.222;27.874;2022-07-29T10:00:54;5.97;;;3.25;;
50241;SDS011;36126;43.222;27.874;2022-07-29T10:03:21;4.35;;;2.58;;
50241;SDS011;36126;43.222;27.874;2022-07-29T10:06:03;3.75;;;2.58;;
50241;SDS011;36126;43.222;27.874;2022-07-29T10:08:33;7.32;;;3.05;;
50241;SDS011;36126;43.222;27.874;2022-07-29T10:11:12;7.10;;;2.78;;
50241;SDS011;36126;43.222;27.874;2022-07-29T10:13:39;5.88;;;3.20;;
50241;SDS011;36126;43.222;27.874;2022-07-29T10:16:06;4.72;;;2.80;;
50241;SDS011;36126;43.222;27.874;2022-07-29T10:18:32;7.80;;;4.10;;
50241;SDS011;36126;43.222;27.874;2022-07-29T10:20:58;8.73;;;2.90;;
50241;SDS011;36126;43.222;27.874;2022-07-29T10:23:26;5.05;;;2.40;;
50241;SDS011;36126;43.222;27.874;2022-07-29T10:25:53;5.45;;;2.60;;
50241;SDS011;36126;43.222;27.874;2022-07-29T10:28:19;6.43;;;2.70;;
50241;SDS011;36126;43.222;27.874;2022-07-29T10:30:45;8.52;;;2.53;;
50241;SDS011;36126;43.222;27.874;2022-07-29T10:43:52;5.85;;;2.50;;
50241;SDS011;36126;43.222;27.874;2022-07-29T10:46:36;6.93;;;3.20;;
50241;SDS011;36126;43.222;27.874;2022-07-29T10:49:16;5.35;;;2.58;;
50241;SDS011;36126;43.222;27.874;2022-07-29T11:07:25;11.40;;;6.32;;
50241;SDS011;36126;43.222;27.874;2022-07-29T11:15:18;4.18;;;2.35;;
50241;SDS011;36126;43.222;27.874;2022-07-29T11:20:41;4.65;;;2.13;;
50241;SDS011;36126;43.222;27.874;2022-07-29T11:28:56;3.55;;;2.30;;
50241;SDS011;36126;43.222;27.874;2022-07-29T11:31:39;6.70;;;3.55;;
50241;SDS011;36126;43.222;27.874;2022-07-29T11:39:46;5.43;;;2.80;;
50241;SDS011;36126;43.222;27.874;2022-07-29T11:48:14;6.80;;;2.33;;
50241;SDS011;36126;43.222;27.874;2022-07-29T11:50:33;7.60;;;2.28;;
50241;SDS011;36126;43.222;27.874;2022-07-29T11:53:01;8.95;;;2.53;;
50241;SDS011;36126;43.222;27.874;2022-07-29T11:55:37;7.70;;;2.72;;
50241;SDS011;36126;43.222;27.874;2022-07-29T11:58:04;5.40;;;2.55;;
50241;SDS011;36126;43.222;27.874;2022-07-29T12:02:59;5.40;;;2.80;;
50241;SDS011;36126;43.222;27.874;2022-07-29T12:05:40;3.88;;;2.20;;
50241;SDS011;36126;43.222;27.874;2022-07-29T12:10:43;8.68;;;2.30;;
50241;SDS011;36126;43.222;27.874;2022-07-29T12:13:09;5.07;;;2.50;;
50241;SDS011;36126;43.222;27.874;2022-07-29T12:15:36;5.05;;;2.67;;
50241;SDS011;36126;43.222;27.874;2022-07-29T12:18:14;10.10;;;2.50;;
50241;SDS011;36126;43.222;27.874;2022-07-29T12:20:41;6.57;;;2.42;;
50241;SDS011;36126;43.222;27.874;2022-07-29T12:23:08;4.78;;;2.05;;
50241;SDS011;36126;43.222;27.874;2022-07-29T12:25:34;3.30;;;2.10;;
50241;SDS011;36126;43.222;27.874;2022-07-29T12:28:20;10.32;;;3.55;;
50241;SDS011;36126;43.222;27.874;2022-07-29T12:30:48;4.97;;;2.40;;
50241;SDS011;36126;43.222;27.874;2022-07-29T12:33:16;4.07;;;1.92;;
50241;SDS011;36126;43.222;27.874;2022-07-29T12:35:51;3.65;;;2.25;;
50241;SDS011;36126;43.222;27.874;2022-07-29T12:38:21;2.90;;;2.15;;
50241;SDS011;36126;43.222;27.874;2022-07-29T12:40:47;2.17;;;1.85;;
50241;SDS011;36126;43.222;27.874;2022-07-29T12:43:17;5.50;;;2.20;;
50241;SDS011;36126;43.222;27.874;2022-07-29T12:45:54;4.75;;;2.75;;
50241;SDS011;36126;43.222;27.874;2022-07-29T12:48:41;4.45;;;2.65;;
50241;SDS011;36126;43.222;27.874;2022-07-29T12:51:08;6.68;;;2.45;;
50241;SDS011;36126;43.222;27.874;2022-07-29T12:53:35;15.85;;;13.73;;
50241;SDS011;36126;43.222;27.874;2022-07-29T12:56:02;7.07;;;4.35;;
50241;SDS011;36126;43.222;27.874;2022-07-29T13:01:02;5.60;;;2.47;;
50241;SDS011;36126;43.222;27.874;2022-07-29T13:06:33;9.10;;;2.40;;
50241;SDS011;36126;43.222;27.874;2022-07-29T13:11:36;7.78;;;2.60;;
50241;SDS011;36126;43.222;27.874;2022-07-29T13:14:04;5.25;;;2.65;;
50241;SDS011;36126;43.222;27.874;2022-07-29T13:16:31;8.57;;;2.20;;
50241;SDS011;36126;43.222;27.874;2022-07-29T13:19:04;8.30;;;2.60;;
50241;SDS011;36126;43.222;27.874;2022-07-29T13:21:37;5.80;;;2.10;;
50241;SDS011;36126;43.222;27.874;2022-07-29T13:24:04;4.03;;;2.05;;
50241;SDS011;36126;43.222;27.874;2022-07-29T13:26:31;4.85;;;2.60;;
50241;SDS011;36126;43.222;27.874;2022-07-29T13:28:56;8.38;;;2.70;;
50241;SDS011;36126;43.222;27.874;2022-07-29T13:31:23;6.90;;;2.30;;
50241;SDS011;36126;43.222;27.874;2022-07-29T13:33:49;7.18;;;2.45;;
50241;SDS011;36126;43.222;27.874;2022-07-29T13:36:14;7.63;;;2.47;;
50241;SDS011;36126;43.222;27.874;2022-07-29T13:38:40;5.18;;;2.30;;
50241;SDS011;36126;43.222;27.874;2022-07-29T13:41:06;5.90;;;2.63;;
50241;SDS011;36126;43.222;27.874;2022-07-29T13:43:31;5.75;;;2.80;;
50241;SDS011;36126;43.222;27.874;2022-07-29T13:45:58;4.97;;;2.90;;
50241;SDS011;36126;43.222;27.874;2022-07-29T13:48:24;6.45;;;2.78;;
50241;SDS011;36126;43.222;27.874;2022-07-29T13:50:49;3.45;;;2.42;;
50241;SDS011;36126;43.222;27.874;2022-07-29T13:53:15;9.25;;;3.33;;
50241;SDS011;36126;43.222;27.874;2022-07-29T13:55:41;6.50;;;3.42;;
50241;SDS011;36126;43.222;27.874;2022-07-29T13:58:07;5.40;;;2.63;;
50241;SDS011;36126;43.222;27.874;2022-07-29T14:00:32;5.45;;;2.38;;
50241;SDS011;36126;43.222;27.874;2022-07-29T14:02:58;3.35;;;2.83;;
50241;SDS011;36126;43.222;27.874;2022-07-29T14:05:24;7.20;;;2.70;;
50241;SDS011;36126;43.222;27.874;2022-07-29T14:07:49;3.63;;;2.75;;
50241;SDS011;36126;43.222;27.874;2022-07-29T14:10:15;7.75;;;2.95;;
50241;SDS011;36126;43.222;27.874;2022-07-29T14:12:40;4.45;;;2.67;;
50241;SDS011;36126;43.222;27.874;2022-07-29T14:15:07;5.80;;;3.08;;
50241;SDS011;36126;43.222;27.874;2022-07-29T14:17:33;8.55;;;3.10;;
50241;SDS011;36126;43.222;27.874;2022-07-29T14:19:59;8.70;;;3.22;;
50241;SDS011;36126;43.222;27.874;2022-07-29T14:22:24;7.38;;;2.83;;
50241;SDS011;36126;43.222;27.874;2022-07-29T14:24:50;6.07;;;3.60;;
50241;SDS011;36126;43.222;27.874;2022-07-29T14:27:15;11.40;;;3.50;;
50241;SDS011;36126;43.222;27.874;2022-07-29T14:29:41;4.55;;;3.15;;
50241;SDS011;36126;43.222;27.874;2022-07-29T14:32:08;4.20;;;2.88;;
50241;SDS011;36126;43.222;27.874;2022-07-29T14:34:35;6.13;;;2.85;;
50241;SDS011;36126;43.222;27.874;2022-07-29T14:37:05;3.97;;;3.13;;
50241;SDS011;36126;43.222;27.874;2022-07-29T14:39:31;9.98;;;3.17;;
50241;SDS011;36126;43.222;27.874;2022-07-29T14:41:57;7.90;;;3.92;;
50241;SDS011;36126;43.222;27.874;2022-07-29T14:44:23;14.45;;;3.47;;
50241;SDS011;36126;43.222;27.874;2022-07-29T14:46:49;5.97;;;3.25;;
50241;SDS011;36126;43.222;27.874;2022-07-29T14:49:14;8.45;;;3.55;;
50241;SDS011;36126;43.222;27.874;2022-07-29T14:51:40;5.95;;;3.83;;
50241;SDS011;36126;43.222;27.874;2022-07-29T14:54:06;6.32;;;2.85;;
50241;SDS011;36126;43.222;27.874;2022-07-29T14:56:32;7.50;;;3.35;;
50241;SDS011;36126;43.222;27.874;2022-07-29T14:58:57;4.72;;;3.08;;
50241;SDS011;36126;43.222;27.874;2022-07-29T15:01:23;5.97;;;3.45;;
50241;SDS011;36126;43.222;27.874;2022-07-29T15:03:49;5.65;;;3.30;;
50241;SDS011;36126;43.222;27.874;2022-07-29T15:06:15;4.68;;;3.53;;
50241;SDS011;36126;43.222;27.874;2022-07-29T15:08:41;6.10;;;3.75;;
50241;SDS011;36126;43.222;27.874;2022-07-29T15:11:06;8.63;;;3.60;;
50241;SDS011;36126;43.222;27.874;2022-07-29T15:13:32;6.47;;;4.20;;
50241;SDS011;36126;43.222;27.874;2022-07-29T15:15:58;5.72;;;3.55;;
50241;SDS011;36126;43.222;27.874;2022-07-29T15:18:23;6.25;;;3.45;;
50241;SDS011;36126;43.222;27.874;2022-07-29T15:20:49;5.13;;;3.42;;
50241;SDS011;36126;43.222;27.874;2022-07-29T15:23:14;6.78;;;3.67;;
50241;SDS011;36126;43.222;27.874;2022-07-29T15:25:40;9.13;;;4.03;;
50241;SDS011;36126;43.222;27.874;2022-07-29T15:28:06;7.50;;;3.83;;
50241;SDS011;36126;43.222;27.874;2022-07-29T15:30:32;8.98;;;4.22;;
50241;SDS011;36126;43.222;27.874;2022-07-29T15:33:01;11.75;;;4.00;;
50241;SDS011;36126;43.222;27.874;2022-07-29T15:35:27;4.70;;;3.42;;
50241;SDS011;36126;43.222;27.874;2022-07-29T15:37:53;5.47;;;3.97;;
50241;SDS011;36126;43.222;27.874;2022-07-29T15:40:19;21.13;;;6.68;;
50241;SDS011;36126;43.222;27.874;2022-07-29T15:42:44;7.00;;;3.90;;
50241;SDS011;36126;43.222;27.874;2022-07-29T15:45:10;6.43;;;4.20;;
50241;SDS011;36126;43.222;27.874;2022-07-29T15:47:35;6.93;;;3.80;;
50241;SDS011;36126;43.222;27.874;2022-07-29T15:50:03;8.32;;;4.75;;
50241;SDS011;36126;43.222;27.874;2022-07-29T15:52:29;8.13;;;3.97;;
50241;SDS011;36126;43.222;27.874;2022-07-29T15:54:54;11.23;;;5.03;;
50241;SDS011;36126;43.222;27.874;2022-07-29T15:57:21;7.80;;;4.05;;
50241;SDS011;36126;43.222;27.874;2022-07-29T15:59:48;7.22;;;3.72;;
50241;SDS011;36126;43.222;27.874;2022-07-29T16:02:14;5.47;;;4.18;;
50241;SDS011;36126;43.222;27.874;2022-07-29T16:04:39;7.80;;;4.50;;